sensor_id;sensor_type;location;lat;lon;timestamp;temperature;humidity
10964;DHT22;5534;48.784;9.190;2022-10-16T00:00:32;17.00;99.90
10964;DHT22;5534;48.784;9.190;2022-10-16T00:02:58;17.00;99.90
10964;DHT22;5534;48.784;9.190;2022-10-16T00:05:23;17.00;99.90
10964;DHT22;5534;48.784;9.190;2022-10-16T00:07:49;17.10;99.90
10964;DHT22;5534;48.784;9.190;2022-10-16T00:10:15;17.10;99.90
10964;DHT22;5534;48.784;9.190;2022-10-16T00:12:41;17.10;99.90
10964;DHT22;5534;48.784;9.190;2022-10-16T00:15:07;17.20;99.90
10964;DHT22;5534;48.784;9.190;2022-10-16T00:17:33;16.90;99.90
10964;DHT22;5534;48.784;9.190;2022-10-16T00:19:58;17.10;99.90
10964;DHT22;5534;48.784;9.190;2022-10-16T00:22:24;17.00;99.90
10964;DHT22;5534;48.784;9.190;2022-10-16T00:24:50;17.00;99.90
10964;DHT22;5534;48.784;9.190;2022-10-16T00:27:16;16.90;99.90
10964;DHT22;5534;48.784;9.190;2022-10-16T00:29:42;16.90;99.90
10964;DHT22;5534;48.784;9.190;2022-10-16T00:32:08;16.80;99.90
10964;DHT22;5534;48.784;9.190;2022-10-16T00:34:34;16.70;99.90
10964;DHT22;5534;48.784;9.190;2022-10-16T00:37:02;16.70;99.90
10964;DHT22;5534;48.784;9.190;2022-10-16T00:39:28;16.80;99.90
10964;DHT22;5534;48.784;9.190;2022-10-16T00:41:53;16.70;99.90
10964;DHT22;5534;48.784;9.190;2022-10-16T00:47:09;16.70;99.90
10964;DHT22;5534;48.784;9.190;2022-10-16T00:49:36;16.70;99.90
10964;DHT22;5534;48.784;9.190;2022-10-16T00:52:02;16.60;99.90
10964;DHT22;5534;48.784;9.190;2022-10-16T00:54:30;16.50;99.90
10964;DHT22;5534;48.784;9.190;2022-10-16T00:57:00;16.60;99.90
10964;DHT22;5534;48.784;9.190;2022-10-16T00:59:39;16.60;99.90
10964;DHT22;5534;48.784;9.190;2022-10-16T01:02:07;16.60;99.90
10964;DHT22;5534;48.784;9.190;2022-10-16T01:04:50;16.70;99.90
10964;DHT22;5534;48.784;9.190;2022-10-16T01:07:27;16.80;99.90
10964;DHT22;5534;48.784;9.190;2022-10-16T01:12:54;16.90;99.90
10964;DHT22;5534;48.784;9.190;2022-10-16T01:15:26;16.80;99.90
10964;DHT22;5534;48.784;9.190;2022-10-16T01:26:06;16.90;99.90
10964;DHT22;5534;48.784;9.190;2022-10-16T01:28:54;16.80;99.90
10964;DHT22;5534;48.784;9.190;2022-10-16T01:31:24;17.00;99.90
10964;DHT22;5534;48.784;9.190;2022-10-16T01:33:59;17.00;99.90
10964;DHT22;5534;48.784;9.190;2022-10-16T01:36:31;17.00;99.90
10964;DHT22;5534;48.784;9.190;2022-10-16T01:39:02;16.80;99.90
10964;DHT22;5534;48.784;9.190;2022-10-16T01:41:33;16.80;99.90
10964;DHT22;5534;48.784;9.190;2022-10-16T01:44:05;16.80;99.90
10964;DHT22;5534;48.784;9.190;2022-10-16T01:46:32;16.80;99.90
10964;DHT22;5534;48.784;9.190;2022-10-16T01:49:00;16.80;99.90
10964;DHT22;5534;48.784;9.190;2022-10-16T01:51:28;16.70;99.90
10964;DHT22;5534;48.784;9.190;2022-10-16T01:53:57;16.70;99.90
10964;DHT22;5534;48.784;9.190;2022-10-16T01:56:25;16.80;99.90
10964;DHT22;5534;48.784;9.190;2022-10-16T01:58:58;16.80;99.90
10964;DHT22;5534;48.784;9.190;2022-10-16T02:01:30;16.80;99.90
10964;DHT22;5534;48.784;9.190;2022-10-16T02:03:59;16.90;99.90
10964;DHT22;5534;48.784;9.190;2022-10-16T02:06:27;17.00;99.90
10964;DHT22;5534;48.784;9.190;2022-10-16T02:08:53;16.80;99.90
10964;DHT22;5534;48.784;9.190;2022-10-16T02:11:19;16.80;99.90
10964;DHT22;5534;48.784;9.190;2022-10-16T02:14:05;16.70;99.90
10964;DHT22;5534;48.784;9.190;2022-10-16T02:16:35;16.70;99.90
10964;DHT22;5534;48.784;9.190;2022-10-16T02:19:01;16.70;99.90
10964;DHT22;5534;48.784;9.190;2022-10-16T02:21:30;16.70;99.90
10964;DHT22;5534;48.784;9.190;2022-10-16T02:24:01;16.80;99.90
10964;DHT22;5534;48.784;9.190;2022-10-16T02:29:08;16.90;99.90
10964;DHT22;5534;48.784;9.190;2022-10-16T02:31:41;16.90;99.90
10964;DHT22;5534;48.784;9.190;2022-10-16T02:34:08;16.80;99.90
10964;DHT22;5534;48.784;9.190;2022-10-16T02:36:38;16.70;99.90
10964;DHT22;5534;48.784;9.190;2022-10-16T02:39:04;16.90;99.90
10964;DHT22;5534;48.784;9.190;2022-10-16T02:41:31;16.90;99.90
10964;DHT22;5534;48.784;9.190;2022-10-16T02:43:57;16.90;99.90
10964;DHT22;5534;48.784;9.190;2022-10-16T02:46:23;16.90;99.90
10964;DHT22;5534;48.784;9.190;2022-10-16T02:48:48;16.90;99.90
10964;DHT22;5534;48.784;9.190;2022-10-16T02:51:14;17.00;99.90
10964;DHT22;5534;48.784;9.190;2022-10-16T02:53:40;16.80;99.90
10964;DHT22;5534;48.784;9.190;2022-10-16T02:56:06;16.80;99.90
10964;DHT22;5534;48.784;9.190;2022-10-16T02:58:31;16.90;99.90
10964;DHT22;5534;48.784;9.190;2022-10-16T03:00:57;16.80;99.90
10964;DHT22;5534;48.784;9.190;2022-10-16T03:03:23;16.90;99.90
10964;DHT22;5534;48.784;9.190;2022-10-16T03:05:50;17.00;99.90
10964;DHT22;5534;48.784;9.190;2022-10-16T03:08:15;16.90;99.90
10964;DHT22;5534;48.784;9.190;2022-10-16T03:10:41;17.10;99.90
10964;DHT22;5534;48.784;9.190;2022-10-16T03:13:07;17.10;99.90
10964;DHT22;5534;48.784;9.190;2022-10-16T03:15:33;17.10;99.90
10964;DHT22;5534;48.784;9.190;2022-10-16T03:17:59;17.00;99.90
10964;DHT22;5534;48.784;9.190;2022-10-16T03:20:26;16.80;99.90
10964;DHT22;5534;48.784;9.190;2022-10-16T03:22:52;16.70;99.90
10964;DHT22;5534;48.784;9.190;2022-10-16T03:25:18;16.60;99.90
10964;DHT22;5534;48.784;9.190;2022-10-16T03:27:44;16.70;99.90
10964;DHT22;5534;48.784;9.190;2022-10-16T03:30:10;16.60;99.90
10964;DHT22;5534;48.784;9.190;2022-10-16T03:32:36;16.80;99.90
10964;DHT22;5534;48.784;9.190;2022-10-16T03:35:01;16.90;99.90
10964;DHT22;5534;48.784;9.190;2022-10-16T03:37:27;16.80;99.90
10964;DHT22;5534;48.784;9.190;2022-10-16T03:39:53;16.80;99.90
10964;DHT22;5534;48.784;9.190;2022-10-16T03:42:19;16.80;99.90
10964;DHT22;5534;48.784;9.190;2022-10-16T03:44:45;16.90;99.90
10964;DHT22;5534;48.784;9.190;2022-10-16T03:47:11;16.80;99.90
10964;DHT22;5534;48.784;9.190;2022-10-16T03:49:36;16.60;99.90
10964;DHT22;5534;48.784;9.190;2022-10-16T03:52:02;16.40;99.90
10964;DHT22;5534;48.784;9.190;2022-10-16T03:54:29;16.50;99.90
10964;DHT22;5534;48.784;9.190;2022-10-16T03:56:55;16.50;99.90
10964;DHT22;5534;48.784;9.190;2022-10-16T03:59:21;16.50;99.90
10964;DHT22;5534;48.784;9.190;2022-10-16T04:01:46;16.70;99.90
10964;DHT22;5534;48.784;9.190;2022-10-16T04:04:12;16.90;99.90
10964;DHT22;5534;48.784;9.190;2022-10-16T04:06:38;16.80;99.90
10964;DHT22;5534;48.784;9.190;2022-10-16T04:09:04;16.60;99.90
10964;DHT22;5534;48.784;9.190;2022-10-16T04:11:29;16.50;99.90
10964;DHT22;5534;48.784;9.190;2022-10-16T04:13:55;16.40;99.90
10964;DHT22;5534;48.784;9.190;2022-10-16T04:16:21;16.30;99.90
10964;DHT22;5534;48.784;9.190;2022-10-16T04:18:47;16.40;99.90
10964;DHT22;5534;48.784;9.190;2022-10-16T04:21:12;16.50;99.90
10964;DHT22;5534;48.784;9.190;2022-10-16T04:23:38;16.30;99.90
10964;DHT22;5534;48.784;9.190;2022-10-16T04:26:04;16.30;99.90
10964;DHT22;5534;48.784;9.190;2022-10-16T04:28:30;16.30;99.90
10964;DHT22;5534;48.784;9.190;2022-10-16T04:30:56;16.10;99.90
10964;DHT22;5534;48.784;9.190;2022-10-16T04:33:22;16.20;99.90
10964;DHT22;5534;48.784;9.190;2022-10-16T04:35:47;16.30;99.90
10964;DHT22;5534;48.784;9.190;2022-10-16T04:38:13;16.20;99.90
10964;DHT22;5534;48.784;9.190;2022-10-16T04:40:39;16.20;99.90
10964;DHT22;5534;48.784;9.190;2022-10-16T04:43:05;16.40;99.90
10964;DHT22;5534;48.784;9.190;2022-10-16T04:45:31;16.70;99.90
10964;DHT22;5534;48.784;9.190;2022-10-16T04:47:58;16.70;99.90
10964;DHT22;5534;48.784;9.190;2022-10-16T04:50:24;16.80;99.90
10964;DHT22;5534;48.784;9.190;2022-10-16T04:52:49;16.80;99.90
10964;DHT22;5534;48.784;9.190;2022-10-16T04:55:15;16.90;99.90
10964;DHT22;5534;48.784;9.190;2022-10-16T04:57:41;16.90;99.90
10964;DHT22;5534;48.784;9.190;2022-10-16T05:00:07;16.60;99.90
10964;DHT22;5534;48.784;9.190;2022-10-16T05:02:33;16.70;99.90
10964;DHT22;5534;48.784;9.190;2022-10-16T05:04:59;16.80;99.90
10964;DHT22;5534;48.784;9.190;2022-10-16T05:07:26;17.00;99.90
10964;DHT22;5534;48.784;9.190;2022-10-16T05:09:52;16.90;99.90
10964;DHT22;5534;48.784;9.190;2022-10-16T05:12:19;17.00;99.90
10964;DHT22;5534;48.784;9.190;2022-10-16T05:14:44;16.80;99.90
10964;DHT22;5534;48.784;9.190;2022-10-16T05:17:10;16.70;99.90
10964;DHT22;5534;48.784;9.190;2022-10-16T05:19:36;16.90;99.90
10964;DHT22;5534;48.784;9.190;2022-10-16T05:22:02;16.80;99.90
10964;DHT22;5534;48.784;9.190;2022-10-16T05:24:27;16.60;99.90
10964;DHT22;5534;48.784;9.190;2022-10-16T05:26:53;16.60;99.90
10964;DHT22;5534;48.784;9.190;2022-10-16T05:29:19;16.70;99.90
10964;DHT22;5534;48.784;9.190;2022-10-16T05:31:45;16.70;99.90
10964;DHT22;5534;48.784;9.190;2022-10-16T05:34:11;16.80;99.90
10964;DHT22;5534;48.784;9.190;2022-10-16T05:36:37;16.80;99.90
10964;DHT22;5534;48.784;9.190;2022-10-16T05:39:03;16.90;99.90
10964;DHT22;5534;48.784;9.190;2022-10-16T05:41:28;16.80;99.90
10964;DHT22;5534;48.784;9.190;2022-10-16T05:43:54;16.90;99.90
10964;DHT22;5534;48.784;9.190;2022-10-16T05:46:20;16.80;99.90
10964;DHT22;5534;48.784;9.190;2022-10-16T05:48:46;16.70;99.90
10964;DHT22;5534;48.784;9.190;2022-10-16T05:51:13;16.40;99.90
10964;DHT22;5534;48.784;9.190;2022-10-16T05:53:40;16.50;99.90
10964;DHT22;5534;48.784;9.190;2022-10-16T05:56:08;16.60;99.90
10964;DHT22;5534;48.784;9.190;2022-10-16T05:58:36;16.60;99.90
10964;DHT22;5534;48.784;9.190;2022-10-16T06:01:07;16.80;99.90
10964;DHT22;5534;48.784;9.190;2022-10-16T06:03:33;16.80;99.90
10964;DHT22;5534;48.784;9.190;2022-10-16T06:06:10;17.10;99.90
10964;DHT22;5534;48.784;9.190;2022-10-16T06:08:36;17.00;99.90
10964;DHT22;5534;48.784;9.190;2022-10-16T06:11:04;17.00;99.90
10964;DHT22;5534;48.784;9.190;2022-10-16T06:13:30;17.00;99.90
10964;DHT22;5534;48.784;9.190;2022-10-16T06:15:58;17.10;99.90
10964;DHT22;5534;48.784;9.190;2022-10-16T06:18:24;17.00;99.90
10964;DHT22;5534;48.784;9.190;2022-10-16T06:20:50;17.10;99.90
10964;DHT22;5534;48.784;9.190;2022-10-16T06:23:16;17.10;99.90
10964;DHT22;5534;48.784;9.190;2022-10-16T06:25:42;17.00;99.90
10964;DHT22;5534;48.784;9.190;2022-10-16T06:28:07;17.00;99.90
10964;DHT22;5534;48.784;9.190;2022-10-16T06:30:33;16.80;99.90
10964;DHT22;5534;48.784;9.190;2022-10-16T06:32:59;16.70;99.90
10964;DHT22;5534;48.784;9.190;2022-10-16T06:35:24;16.90;99.90
10964;DHT22;5534;48.784;9.190;2022-10-16T06:37:52;16.80;99.90
10964;DHT22;5534;48.784;9.190;2022-10-16T06:40:18;17.00;99.90
10964;DHT22;5534;48.784;9.190;2022-10-16T06:42:44;17.10;99.90
10964;DHT22;5534;48.784;9.190;2022-10-16T06:45:10;17.10;99.90
10964;DHT22;5534;48.784;9.190;2022-10-16T06:47:36;17.10;99.90
10964;DHT22;5534;48.784;9.190;2022-10-16T06:50:03;17.10;99.90
10964;DHT22;5534;48.784;9.190;2022-10-16T06:52:29;17.10;99.90
10964;DHT22;5534;48.784;9.190;2022-10-16T06:54:55;17.10;99.90
10964;DHT22;5534;48.784;9.190;2022-10-16T06:57:21;17.10;99.90
10964;DHT22;5534;48.784;9.190;2022-10-16T06:59:47;17.10;99.90
10964;DHT22;5534;48.784;9.190;2022-10-16T07:02:12;17.10;99.90
10964;DHT22;5534;48.784;9.190;2022-10-16T07:04:38;16.90;99.90
10964;DHT22;5534;48.784;9.190;2022-10-16T07:07:04;16.90;99.90
10964;DHT22;5534;48.784;9.190;2022-10-16T07:09:30;17.00;99.90
10964;DHT22;5534;48.784;9.190;2022-10-16T07:11:55;16.90;99.90
10964;DHT22;5534;48.784;9.190;2022-10-16T07:14:21;17.10;99.90
10964;DHT22;5534;48.784;9.190;2022-10-16T07:16:47;17.20;99.90
10964;DHT22;5534;48.784;9.190;2022-10-16T07:19:14;17.40;99.90
10964;DHT22;5534;48.784;9.190;2022-10-16T07:21:42;17.20;99.90
10964;DHT22;5534;48.784;9.190;2022-10-16T07:24:13;17.10;99.90
10964;DHT22;5534;48.784;9.190;2022-10-16T07:26:40;17.30;99.90
10964;DHT22;5534;48.784;9.190;2022-10-16T07:29:12;17.30;99.90
10964;DHT22;5534;48.784;9.190;2022-10-16T07:31:39;17.40;99.90
10964;DHT22;5534;48.784;9.190;2022-10-16T07:34:05;17.40;99.90
10964;DHT22;5534;48.784;9.190;2022-10-16T07:36:31;17.40;99.90
10964;DHT22;5534;48.784;9.190;2022-10-16T07:38:56;17.40;99.90
10964;DHT22;5534;48.784;9.190;2022-10-16T07:41:22;17.20;99.90
10964;DHT22;5534;48.784;9.190;2022-10-16T07:43:50;17.30;99.90
10964;DHT22;5534;48.784;9.190;2022-10-16T07:46:16;17.30;99.90
10964;DHT22;5534;48.784;9.190;2022-10-16T07:48:43;17.30;99.90
10964;DHT22;5534;48.784;9.190;2022-10-16T07:51:18;17.20;99.90
10964;DHT22;5534;48.784;9.190;2022-10-16T07:53:44;17.20;99.90
10964;DHT22;5534;48.784;9.190;2022-10-16T07:56:10;17.20;99.90
10964;DHT22;5534;48.784;9.190;2022-10-16T07:58:37;17.40;99.90
10964;DHT22;5534;48.784;9.190;2022-10-16T08:01:05;17.60;99.90
10964;DHT22;5534;48.784;9.190;2022-10-16T08:03:31;17.60;99.90
10964;DHT22;5534;48.784;9.190;2022-10-16T08:05:57;17.70;99.90
10964;DHT22;5534;48.784;9.190;2022-10-16T08:08:23;17.80;99.90
10964;DHT22;5534;48.784;9.190;2022-10-16T08:10:49;17.80;99.90
10964;DHT22;5534;48.784;9.190;2022-10-16T08:13:15;17.80;99.90
10964;DHT22;5534;48.784;9.190;2022-10-16T08:15:44;17.80;99.90
10964;DHT22;5534;48.784;9.190;2022-10-16T08:18:11;17.90;99.90
10964;DHT22;5534;48.784;9.190;2022-10-16T08:20:38;17.80;99.90
10964;DHT22;5534;48.784;9.190;2022-10-16T08:23:04;17.90;99.90
10964;DHT22;5534;48.784;9.190;2022-10-16T08:25:29;17.90;99.90
10964;DHT22;5534;48.784;9.190;2022-10-16T08:27:55;17.90;99.90
10964;DHT22;5534;48.784;9.190;2022-10-16T08:30:22;18.00;99.90
10964;DHT22;5534;48.784;9.190;2022-10-16T08:32:48;18.20;99.90
10964;DHT22;5534;48.784;9.190;2022-10-16T08:35:15;18.20;99.90
10964;DHT22;5534;48.784;9.190;2022-10-16T08:37:42;18.30;99.90
10964;DHT22;5534;48.784;9.190;2022-10-16T08:40:18;18.30;99.90
10964;DHT22;5534;48.784;9.190;2022-10-16T08:45:43;18.40;99.90
10964;DHT22;5534;48.784;9.190;2022-10-16T08:48:17;18.50;99.90
10964;DHT22;5534;48.784;9.190;2022-10-16T08:50:45;18.50;99.90
10964;DHT22;5534;48.784;9.190;2022-10-16T08:53:36;18.40;99.90
10964;DHT22;5534;48.784;9.190;2022-10-16T08:56:03;18.40;99.90
10964;DHT22;5534;48.784;9.190;2022-10-16T08:58:30;18.50;99.90
10964;DHT22;5534;48.784;9.190;2022-10-16T09:01:00;18.60;99.90
10964;DHT22;5534;48.784;9.190;2022-10-16T09:06:27;18.60;99.90
10964;DHT22;5534;48.784;9.190;2022-10-16T09:12:00;18.70;99.90
10964;DHT22;5534;48.784;9.190;2022-10-16T09:23:00;18.90;99.90
10964;DHT22;5534;48.784;9.190;2022-10-16T09:25:34;19.10;99.90
10964;DHT22;5534;48.784;9.190;2022-10-16T09:28:00;19.20;99.90
10964;DHT22;5534;48.784;9.190;2022-10-16T09:30:28;19.50;99.90
10964;DHT22;5534;48.784;9.190;2022-10-16T09:32:58;19.60;99.90
10964;DHT22;5534;48.784;9.190;2022-10-16T09:38:01;19.60;99.90
10964;DHT22;5534;48.784;9.190;2022-10-16T09:45:39;19.50;99.90
10964;DHT22;5534;48.784;9.190;2022-10-16T09:48:12;19.60;99.90
10964;DHT22;5534;48.784;9.190;2022-10-16T09:50:38;19.40;99.90
10964;DHT22;5534;48.784;9.190;2022-10-16T09:53:14;19.40;99.90
10964;DHT22;5534;48.784;9.190;2022-10-16T09:55:50;19.50;99.90
10964;DHT22;5534;48.784;9.190;2022-10-16T09:58:17;19.60;99.90
10964;DHT22;5534;48.784;9.190;2022-10-16T10:00:49;19.60;99.90
10964;DHT22;5534;48.784;9.190;2022-10-16T10:03:36;19.70;99.90
10964;DHT22;5534;48.784;9.190;2022-10-16T10:06:14;19.70;99.90
10964;DHT22;5534;48.784;9.190;2022-10-16T10:08:59;19.60;99.90
10964;DHT22;5534;48.784;9.190;2022-10-16T10:12:01;19.70;99.90
10964;DHT22;5534;48.784;9.190;2022-10-16T10:14:38;19.60;99.90
10964;DHT22;5534;48.784;9.190;2022-10-16T10:19:38;19.70;99.90
10964;DHT22;5534;48.784;9.190;2022-10-16T10:22:27;19.90;99.90
10964;DHT22;5534;48.784;9.190;2022-10-16T10:28:06;19.90;99.90
10964;DHT22;5534;48.784;9.190;2022-10-16T10:31:01;20.00;99.90
10964;DHT22;5534;48.784;9.190;2022-10-16T10:33:50;20.30;99.90
10964;DHT22;5534;48.784;9.190;2022-10-16T10:41:39;20.40;99.90
10964;DHT22;5534;48.784;9.190;2022-10-16T10:52:50;20.40;99.90
10964;DHT22;5534;48.784;9.190;2022-10-16T11:01:15;20.70;99.90
10964;DHT22;5534;48.784;9.190;2022-10-16T11:04:10;20.70;99.90
10964;DHT22;5534;48.784;9.190;2022-10-16T11:09:27;21.00;99.90
10964;DHT22;5534;48.784;9.190;2022-10-16T11:12:21;21.00;99.90
10964;DHT22;5534;48.784;9.190;2022-10-16T11:14:57;20.90;99.90
10964;DHT22;5534;48.784;9.190;2022-10-16T11:17:33;20.90;99.90
10964;DHT22;5534;48.784;9.190;2022-10-16T11:22:54;20.90;99.90
10964;DHT22;5534;48.784;9.190;2022-10-16T11:25:26;21.00;99.90
10964;DHT22;5534;48.784;9.190;2022-10-16T11:28:25;21.10;99.90
10964;DHT22;5534;48.784;9.190;2022-10-16T11:36:23;21.20;99.90
10964;DHT22;5534;48.784;9.190;2022-10-16T11:41:52;21.30;99.90
10964;DHT22;5534;48.784;9.190;2022-10-16T11:53:01;21.80;99.90
10964;DHT22;5534;48.784;9.190;2022-10-16T11:55:39;21.90;99.90
10964;DHT22;5534;48.784;9.190;2022-10-16T12:01:02;22.10;99.90
10964;DHT22;5534;48.784;9.190;2022-10-16T12:04:41;22.10;99.90
10964;DHT22;5534;48.784;9.190;2022-10-16T12:07:05;22.20;99.90
10964;DHT22;5534;48.784;9.190;2022-10-16T12:09:36;22.30;99.90
10964;DHT22;5534;48.784;9.190;2022-10-16T12:12:03;22.40;99.90
10964;DHT22;5534;48.784;9.190;2022-10-16T12:14:40;22.40;99.90
10964;DHT22;5534;48.784;9.190;2022-10-16T12:17:34;22.50;99.90
10964;DHT22;5534;48.784;9.190;2022-10-16T12:22:48;22.30;99.90
10964;DHT22;5534;48.784;9.190;2022-10-16T12:25:25;22.30;99.90
10964;DHT22;5534;48.784;9.190;2022-10-16T12:30:43;22.50;99.90
10964;DHT22;5534;48.784;9.190;2022-10-16T12:35:55;22.70;99.90
10964;DHT22;5534;48.784;9.190;2022-10-16T12:38:30;22.70;99.90
10964;DHT22;5534;48.784;9.190;2022-10-16T12:41:03;22.50;99.90
10964;DHT22;5534;48.784;9.190;2022-10-16T12:46:04;22.50;99.90
10964;DHT22;5534;48.784;9.190;2022-10-16T12:48:30;22.60;99.90
10964;DHT22;5534;48.784;9.190;2022-10-16T12:50:56;22.80;99.90
10964;DHT22;5534;48.784;9.190;2022-10-16T12:53:24;22.80;99.90
10964;DHT22;5534;48.784;9.190;2022-10-16T12:56:02;22.80;99.90
10964;DHT22;5534;48.784;9.190;2022-10-16T13:04:27;22.70;99.90
10964;DHT22;5534;48.784;9.190;2022-10-16T13:18:16;22.20;99.90
10964;DHT22;5534;48.784;9.190;2022-10-16T13:29:19;22.40;99.90
10964;DHT22;5534;48.784;9.190;2022-10-16T13:31:46;22.40;99.90
10964;DHT22;5534;48.784;9.190;2022-10-16T13:34:19;22.30;99.90
10964;DHT22;5534;48.784;9.190;2022-10-16T13:36:48;22.30;99.90
10964;DHT22;5534;48.784;9.190;2022-10-16T13:39:26;22.20;99.90
10964;DHT22;5534;48.784;9.190;2022-10-16T13:42:04;22.10;99.90
10964;DHT22;5534;48.784;9.190;2022-10-16T13:44:42;22.10;99.90
10964;DHT22;5534;48.784;9.190;2022-10-16T13:47:17;22.10;99.90
10964;DHT22;5534;48.784;9.190;2022-10-16T13:49:43;22.10;99.90
10964;DHT22;5534;48.784;9.190;2022-10-16T13:52:18;22.10;99.90
10964;DHT22;5534;48.784;9.190;2022-10-16T13:54:44;22.10;99.90
10964;DHT22;5534;48.784;9.190;2022-10-16T13:57:17;22.10;99.90
10964;DHT22;5534;48.784;9.190;2022-10-16T13:59:43;22.00;99.90
10964;DHT22;5534;48.784;9.190;2022-10-16T14:02:31;22.00;99.90
10964;DHT22;5534;48.784;9.190;2022-10-16T14:05:01;22.00;99.90
10964;DHT22;5534;48.784;9.190;2022-10-16T14:07:32;21.90;99.90
10964;DHT22;5534;48.784;9.190;2022-10-16T14:10:03;21.90;99.90
10964;DHT22;5534;48.784;9.190;2022-10-16T14:12:30;21.80;99.90
10964;DHT22;5534;48.784;9.190;2022-10-16T14:14:57;21.70;99.90
10964;DHT22;5534;48.784;9.190;2022-10-16T14:17:25;21.50;99.90
10964;DHT22;5534;48.784;9.190;2022-10-16T14:19:54;21.60;99.90
10964;DHT22;5534;48.784;9.190;2022-10-16T14:22:37;21.60;99.90
10964;DHT22;5534;48.784;9.190;2022-10-16T14:28:18;21.50;99.90
10964;DHT22;5534;48.784;9.190;2022-10-16T14:30:52;21.50;99.90
10964;DHT22;5534;48.784;9.190;2022-10-16T14:33:22;21.50;99.90
10964;DHT22;5534;48.784;9.190;2022-10-16T14:38:27;21.50;99.90
10964;DHT22;5534;48.784;9.190;2022-10-16T14:40:57;21.60;99.90
10964;DHT22;5534;48.784;9.190;2022-10-16T14:43:41;21.50;99.90
10964;DHT22;5534;48.784;9.190;2022-10-16T14:48:41;21.50;99.90
10964;DHT22;5534;48.784;9.190;2022-10-16T14:51:13;21.40;99.90
10964;DHT22;5534;48.784;9.190;2022-10-16T14:53:41;21.50;99.90
10964;DHT22;5534;48.784;9.190;2022-10-16T14:56:19;21.50;99.90
10964;DHT22;5534;48.784;9.190;2022-10-16T14:58:48;21.50;99.90
10964;DHT22;5534;48.784;9.190;2022-10-16T15:01:15;21.50;99.90
10964;DHT22;5534;48.784;9.190;2022-10-16T15:03:40;21.50;99.90
10964;DHT22;5534;48.784;9.190;2022-10-16T15:06:14;21.50;99.90
10964;DHT22;5534;48.784;9.190;2022-10-16T15:08:41;21.50;99.90
10964;DHT22;5534;48.784;9.190;2022-10-16T15:11:18;21.50;99.90
10964;DHT22;5534;48.784;9.190;2022-10-16T15:13:45;21.40;99.90
10964;DHT22;5534;48.784;9.190;2022-10-16T15:16:13;21.40;99.90
10964;DHT22;5534;48.784;9.190;2022-10-16T15:18:39;21.40;99.90
10964;DHT22;5534;48.784;9.190;2022-10-16T15:21:05;21.50;99.90
10964;DHT22;5534;48.784;9.190;2022-10-16T15:23:31;21.50;99.90
10964;DHT22;5534;48.784;9.190;2022-10-16T15:25:57;21.50;99.90
10964;DHT22;5534;48.784;9.190;2022-10-16T15:28:24;21.50;99.90
10964;DHT22;5534;48.784;9.190;2022-10-16T15:30:52;21.50;99.90
10964;DHT22;5534;48.784;9.190;2022-10-16T15:33:20;21.40;99.90
10964;DHT22;5534;48.784;9.190;2022-10-16T15:35:47;21.40;99.90
10964;DHT22;5534;48.784;9.190;2022-10-16T15:38:14;21.40;99.90
10964;DHT22;5534;48.784;9.190;2022-10-16T15:40:41;21.30;99.90
10964;DHT22;5534;48.784;9.190;2022-10-16T15:43:07;21.30;99.90
10964;DHT22;5534;48.784;9.190;2022-10-16T15:45:34;21.20;99.90
10964;DHT22;5534;48.784;9.190;2022-10-16T15:48:00;21.10;99.90
10964;DHT22;5534;48.784;9.190;2022-10-16T15:50:26;21.20;99.90
10964;DHT22;5534;48.784;9.190;2022-10-16T15:52:52;21.10;99.90
10964;DHT22;5534;48.784;9.190;2022-10-16T15:55:18;21.00;99.90
10964;DHT22;5534;48.784;9.190;2022-10-16T15:57:45;21.00;99.90
10964;DHT22;5534;48.784;9.190;2022-10-16T16:00:16;20.90;99.90
10964;DHT22;5534;48.784;9.190;2022-10-16T16:02:45;20.90;99.90
10964;DHT22;5534;48.784;9.190;2022-10-16T16:05:15;20.90;99.90
10964;DHT22;5534;48.784;9.190;2022-10-16T16:07:40;20.90;99.90
10964;DHT22;5534;48.784;9.190;2022-10-16T16:10:09;21.00;99.90
10964;DHT22;5534;48.784;9.190;2022-10-16T16:12:35;20.80;99.90
10964;DHT22;5534;48.784;9.190;2022-10-16T16:15:01;20.70;99.90
10964;DHT22;5534;48.784;9.190;2022-10-16T16:17:26;20.60;99.90
10964;DHT22;5534;48.784;9.190;2022-10-16T16:19:52;20.60;99.90
10964;DHT22;5534;48.784;9.190;2022-10-16T16:22:18;20.60;99.90
10964;DHT22;5534;48.784;9.190;2022-10-16T16:24:44;20.60;99.90
10964;DHT22;5534;48.784;9.190;2022-10-16T16:27:09;20.60;99.90
10964;DHT22;5534;48.784;9.190;2022-10-16T16:29:35;20.60;99.90
10964;DHT22;5534;48.784;9.190;2022-10-16T16:32:01;20.50;99.90
10964;DHT22;5534;48.784;9.190;2022-10-16T16:34:28;20.50;99.90
10964;DHT22;5534;48.784;9.190;2022-10-16T16:36:54;20.40;99.90
10964;DHT22;5534;48.784;9.190;2022-10-16T16:39:21;20.30;99.90
10964;DHT22;5534;48.784;9.190;2022-10-16T16:41:47;20.30;99.90
10964;DHT22;5534;48.784;9.190;2022-10-16T16:44:14;20.20;99.90
10964;DHT22;5534;48.784;9.190;2022-10-16T16:46:40;20.20;99.90
10964;DHT22;5534;48.784;9.190;2022-10-16T16:49:12;20.10;99.90
10964;DHT22;5534;48.784;9.190;2022-10-16T16:51:38;20.10;99.90
10964;DHT22;5534;48.784;9.190;2022-10-16T16:54:05;20.10;99.90
10964;DHT22;5534;48.784;9.190;2022-10-16T16:56:34;20.00;99.90
10964;DHT22;5534;48.784;9.190;2022-10-16T16:59:01;20.00;99.90
10964;DHT22;5534;48.784;9.190;2022-10-16T17:01:27;19.90;99.90
10964;DHT22;5534;48.784;9.190;2022-10-16T17:03:55;19.90;99.90
10964;DHT22;5534;48.784;9.190;2022-10-16T17:06:24;19.90;99.90
10964;DHT22;5534;48.784;9.190;2022-10-16T17:08:50;19.80;99.90
10964;DHT22;5534;48.784;9.190;2022-10-16T17:11:19;19.70;99.90
10964;DHT22;5534;48.784;9.190;2022-10-16T17:13:46;19.70;99.90
10964;DHT22;5534;48.784;9.190;2022-10-16T17:16:11;19.60;99.90
10964;DHT22;5534;48.784;9.190;2022-10-16T17:18:38;19.70;99.90
10964;DHT22;5534;48.784;9.190;2022-10-16T17:21:06;19.50;99.90
10964;DHT22;5534;48.784;9.190;2022-10-16T17:23:34;19.60;99.90
10964;DHT22;5534;48.784;9.190;2022-10-16T17:26:11;19.60;99.90
10964;DHT22;5534;48.784;9.190;2022-10-16T17:28:37;19.60;99.90
10964;DHT22;5534;48.784;9.190;2022-10-16T17:31:12;19.50;99.90
10964;DHT22;5534;48.784;9.190;2022-10-16T17:33:39;19.50;99.90
10964;DHT22;5534;48.784;9.190;2022-10-16T17:36:05;19.40;99.90
10964;DHT22;5534;48.784;9.190;2022-10-16T17:38:31;19.30;99.90
10964;DHT22;5534;48.784;9.190;2022-10-16T17:40:57;19.30;99.90
10964;DHT22;5534;48.784;9.190;2022-10-16T17:43:23;19.30;99.90
10964;DHT22;5534;48.784;9.190;2022-10-16T17:45:49;19.20;99.90
10964;DHT22;5534;48.784;9.190;2022-10-16T17:48:15;19.10;99.90
10964;DHT22;5534;48.784;9.190;2022-10-16T17:50:41;19.10;99.90
10964;DHT22;5534;48.784;9.190;2022-10-16T17:53:08;19.10;99.90
10964;DHT22;5534;48.784;9.190;2022-10-16T17:55:40;19.20;99.90
10964;DHT22;5534;48.784;9.190;2022-10-16T17:58:07;19.10;99.90
10964;DHT22;5534;48.784;9.190;2022-10-16T18:00:33;19.10;99.90
10964;DHT22;5534;48.784;9.190;2022-10-16T18:03:00;19.00;99.90
10964;DHT22;5534;48.784;9.190;2022-10-16T18:05:26;18.90;99.90
10964;DHT22;5534;48.784;9.190;2022-10-16T18:07:52;19.00;99.90
10964;DHT22;5534;48.784;9.190;2022-10-16T18:10:18;18.90;99.90
10964;DHT22;5534;48.784;9.190;2022-10-16T18:12:43;18.80;99.90